Flight Track Log - Related Links

Times and Time Zones

All times are in EST time to prevent confusion due to time zone crossing. See the VP-BLX flight status page for this flight to view local times or setup timezone preferences in your user account.

Time Position Orientation Groundspeed Altitude Reporting Facility
EST Latitude Longitude Course Direction KTS MPH feet Rate Location/Type
Tue 11:14:00 PM 56.0074 37.3298 290° West  Level FlightAware Approximate
Tue 11:15:00 PM 56.0423 37.1104 280° West  Level FlightAware Approximate
Tue 11:16:00 PM 56.0855 36.8973 281° West  Level FlightAware Approximate
Tue 11:17:00 PM 56.1105 36.6724 281° West  Level FlightAware Approximate
Tue 11:18:00 PM 56.1425 36.4503 286° West  Level FlightAware Approximate
Tue 11:19:00 PM 56.1764 36.2289 285° West  Level FlightAware Approximate
Tue 11:20:00 PM 56.2126 36.0084 287° West  Level FlightAware Approximate
Tue 11:21:00 PM 56.2466 35.7867 284° West  Level FlightAware Approximate
Tue 11:22:00 PM 56.2771 35.5630 284° West  Level FlightAware Approximate
Tue 11:23:00 PM 56.3127 35.3417 287° West  Level FlightAware Approximate
Tue 11:24:00 PM 56.3493 35.1207 287° West  Level FlightAware Approximate
Tue 11:25:00 PM 56.3816 34.8973 285° West  Level FlightAware Approximate
Tue 11:26:00 PM 56.4134 34.6734 284° West  Level FlightAware Approximate
Tue 11:27:00 PM 56.4388 34.4469 285° West  Level FlightAware Approximate
Tue 11:28:00 PM 56.4724 34.2236 285° West  Level FlightAware Approximate
Tue 11:29:00 PM 56.5049 33.9995 285° West  Level FlightAware Approximate
Tue 11:30:00 PM 56.5346 33.7741 283° West  Level FlightAware Approximate
Tue 11:31:00 PM 56.5599 33.5467 280° West  Level FlightAware Approximate
Tue 11:32:00 PM 56.5816 33.3179 280° West  Level FlightAware Approximate
Tue 11:33:00 PM 56.6096 33.0913 283° West  Level FlightAware Approximate
Tue 11:34:00 PM 56.6378 32.8645 283° West  Level FlightAware Approximate
Tue 11:35:00 PM 56.6655 32.6374 283° West  Level FlightAware Approximate
Tue 11:36:00 PM 56.6929 32.4099 282° West  Level FlightAware Approximate
Tue 11:37:00 PM 56.7198 32.1822 282° West  Level FlightAware Approximate
Tue 11:38:00 PM 56.7463 31.9541 282° West  Level FlightAware Approximate
Tue 11:39:00 PM 56.7724 31.7256 282° West  Level FlightAware Approximate
Tue 11:40:00 PM 56.7980 31.4969 282° West  Level FlightAware Approximate
Tue 11:41:00 PM 56.8233 31.2679 281° West  Level FlightAware Approximate
Tue 11:42:00 PM 56.8481 31.0385 281° West  Level FlightAware Approximate
Tue 11:43:00 PM 56.8725 30.8089 281° West  Level FlightAware Approximate
Tue 11:44:00 PM 56.8965 30.5789 281° West  Level FlightAware Approximate
Tue 11:45:00 PM 56.9200 30.3487 281° West  Level FlightAware Approximate
Tue 11:46:00 PM 56.9431 30.1182 281° West  Level FlightAware Approximate
Tue 11:47:00 PM 56.9659 29.8873 280° West  Level FlightAware Approximate
Tue 11:48:00 PM 56.9882 29.6562 280° West  Level FlightAware Approximate
Tue 11:49:00 PM 57.0100 29.4249 280° West  Level FlightAware Approximate
Tue 11:50:00 PM 57.0314 29.1932 280° West  Level FlightAware Approximate
Tue 11:51:00 PM 57.0524 28.9613 280° West  Level FlightAware Approximate
Tue 11:52:00 PM 57.0730 28.7292 279° West  Level FlightAware Approximate
Tue 11:53:00 PM 57.0932 28.4968 279° West  Level FlightAware Approximate
Tue 11:54:00 PM 57.1128 28.2641 279° West  Level FlightAware Approximate
Tue 11:55:00 PM 57.1321 28.0312 279° West  Level FlightAware Approximate
Tue 11:56:00 PM 57.1509 27.7980 279° West  Level FlightAware Approximate
Tue 11:57:00 PM 57.1692 27.5646 278° West  Level FlightAware Approximate
Tue 11:58:00 PM 57.1872 27.3309 278° West  Level FlightAware Approximate
Tue 11:59:00 PM 57.2047 27.0971 278° West  Level FlightAware Approximate
Wed 12:00:00 AM 57.2217 26.8630 278° West  Level FlightAware Approximate
Wed 12:01:00 AM 57.2383 26.6287 278° West  Level FlightAware Approximate
Wed 12:02:00 AM 57.2545 26.3943 277° West  Level FlightAware Approximate
Wed 12:03:00 AM 57.2703 26.1595 277° West  Level FlightAware Approximate
Wed 12:04:00 AM 57.2856 25.9247 277° West  Level FlightAware Approximate
Wed 12:05:00 AM 57.3005 25.6896 277° West  Level FlightAware Approximate
Wed 12:06:00 AM 57.3149 25.4543 277° West  Level FlightAware Approximate
Wed 12:07:00 AM 57.3289 25.2188 276° West  Level FlightAware Approximate
Wed 12:07:18 AM 56.7597 25.8053 276° West 454 522 34,000  Level FlightAware ADS-B
Wed 12:08:00 AM 57.3425 24.9832 276° West  Level FlightAware Approximate
Wed 12:09:00 AM 57.3556 24.7474 276° West  Level FlightAware Approximate
Wed 12:10:00 AM 56.8405 25.1922 284° West  Level Estimated
Wed 12:11:00 AM 56.8697 24.9644 283° West  Level Estimated
Wed 12:11:26 AM 56.7513 24.8502 283° West 456 525 34,000  Level FlightAware ADS-B
Wed 12:12:14 AM 56.7493 24.6912 269° West 458 527 34,000  Level FlightAware ADS-B
Wed 12:13:28 AM 56.7446 24.3834 269° West 461 531 34,000  Level FlightAware ADS-B
Wed 12:13:59 AM 56.7426 24.2636 268° West 463 533 34,000  Level FlightAware ADS-B (EPSY / SZY)
Wed 12:14:45 AM 56.7392 24.0819 268° West 463 533 34,000  Level FlightAware ADS-B (EPSY / SZY)
Wed 12:15:15 AM 56.7370 23.9666 268° West 464 534 34,000  Level FlightAware ADS-B (EPSY / SZY)
Wed 12:16:01 AM 56.7334 23.7884 268° West 465 535 34,000  Level FlightAware ADS-B (EPSY / SZY)
Wed 12:16:31 AM 56.7307 23.6679 268° West 465 535 34,000  Level FlightAware ADS-B (EPSY / SZY)
Wed 12:17:13 AM 56.7270 23.5028 268° West 467 537 34,000  Level FlightAware ADS-B (EPSY / SZY)
Wed 12:17:43 AM 56.7243 23.3877 268° West 471 542 34,000  Level FlightAware ADS-B (EPSY / SZY)
Wed 12:18:27 AM 56.7199 23.2105 267° West 474 545 34,000  Level FlightAware ADS-B
Wed 12:19:03 AM 56.7164 23.0783 267° West 475 547 34,000  Level FlightAware ADS-B (EPSY / SZY)
Wed 12:19:33 AM 56.7128 22.9488 267° West 474 545 34,000  Level FlightAware ADS-B (EPSY / SZY)
Wed 12:20:11 AM 56.7085 22.7980 267° West 474 545 34,000  Level FlightAware ADS-B (EPSY / SZY)
Wed 12:20:41 AM 56.7050 22.6806 267° West 474 545 34,000  Level FlightAware ADS-B (EPSY / SZY)
Wed 12:21:30 AM 56.7015 22.5629 267° West 475 547 34,000  Level FlightAware ADS-B (EPSY / SZY)
Wed 12:22:03 AM 56.6949 22.3560 267° West 477 549 34,000  Level FlightAware ADS-B (EPSY / SZY)
Wed 12:22:38 AM 56.6902 22.2155 267° West 478 550 34,000  Level FlightAware ADS-B (EPSY / SZY)
Wed 12:23:12 AM 56.6856 22.0831 266° West 479 551 34,000  Level FlightAware ADS-B (EPSY / SZY)
Wed 12:23:44 AM 56.6809 21.9506 266° West 480 552 34,000  Level FlightAware ADS-B (EPSY / SZY)
Wed 12:24:38 AM 56.6730 21.7338 266° West 480 552 34,000  Level FlightAware ADS-B (EPSY / SZY)
Wed 12:25:08 AM 56.6684 21.6140 266° West 480 552 34,000  Level FlightAware ADS-B (EPSY / SZY)
Wed 12:25:53 AM 56.6611 21.4311 266° West 479 551 34,000  Level FlightAware ADS-B (EPSY / SZY)
Wed 12:26:24 AM 56.6561 21.3072 266° West 479 551 34,000  Level FlightAware ADS-B (EPSY / SZY)
Wed 12:27:06 AM 56.6492 21.1432 266° West 478 550 34,000  Level FlightAware ADS-B (EPSY / SZY)
Wed 12:27:36 AM 56.6441 21.0241 266° West 479 551 34,000  Level FlightAware ADS-B (EPSY / SZY)
Wed 12:28:28 AM 56.6347 20.8129 265° West 480 552 34,000  Level FlightAware ADS-B (EPSY / SZY)
Wed 12:29:08 AM 56.6274 20.6512 265° West 482 555 34,000  Level FlightAware ADS-B (EPSY / SZY)
Wed 12:29:39 AM 56.6215 20.5266 265° West 483 556 34,000  Level FlightAware ADS-B (EPSY / SZY)
Wed 12:30:09 AM 56.6158 20.4073 265° West 484 557 34,000  Level FlightAware ADS-B (EPSY / SZY)
Wed 12:30:50 AM 56.6078 20.2459 265° West 486 559 34,000  Level FlightAware ADS-B (EPSY / SZY)
Wed 12:33:00 AM 56.6519 19.7485 279° West  Level Estimated
Wed 12:34:00 AM 56.6715 19.5186 279° West  Level Estimated
Wed 12:35:00 AM 56.6907 19.2884 279° West  Level Estimated
Wed 12:36:00 AM 56.7095 19.0580 279° West  Level Estimated
Wed 12:37:00 AM 56.7279 18.8273 278° West  Level Estimated
Wed 12:38:00 AM 56.7459 18.5964 278° West  Level Estimated
Wed 12:39:00 AM 56.7634 18.3654 278° West  Level Estimated
Wed 12:39:02 AM 56.5342 18.2663 278° West 478 550 34,000  Level FlightAware ADS-B
Wed 12:39:34 AM 56.5342 18.1452 270° West 479 551 34,000  Level FlightAware ADS-B
Wed 12:42:00 AM 56.5745 17.5853 278° West  Level Estimated
Wed 12:43:00 AM 56.5904 17.3549 277° West  Level Estimated
Wed 12:43:10 AM 56.5308 17.2709 277° West 480 552 34,000  Level FlightAware ADS-B
Wed 12:44:11 AM 56.5288 17.0251 269° West 479 551 34,000  Level FlightAware ADS-B
Wed 12:46:00 AM 56.5555 16.6064 277° West  Level Estimated
Wed 12:46:25 AM 56.5228 16.4911 277° West 480 552 34,000  Level FlightAware ADS-B
Wed 12:46:58 AM 56.5209 16.3589 269° West 478 550 34,000  Level FlightAware ADS-B
Wed 12:47:38 AM 56.5185 16.2019 268° West 475 547 34,000  Level FlightAware ADS-B
Wed 12:48:11 AM 56.5163 16.0737 268° West 474 545 34,000  Level FlightAware ADS-B
Wed 12:48:41 AM 56.5141 15.9507 268° West 472 543 34,000  Level FlightAware ADS-B
Wed 12:49:27 AM 56.5108 15.7693 268° West 472 543 34,000  Level FlightAware ADS-B
Wed 12:49:58 AM 56.5084 15.6484 268° West 472 543 34,000  Level FlightAware ADS-B
Wed 12:50:36 AM 56.5052 15.4964 268° West 472 543 34,000  Level FlightAware ADS-B
Wed 12:51:16 AM 56.5017 15.3411 268° West 472 543 34,000  Level FlightAware ADS-B
Wed 12:51:56 AM 56.4981 15.1848 268° West 474 545 34,000  Level FlightAware ADS-B
Wed 12:52:29 AM 56.4949 15.0527 268° West 475 547 34,000  Level FlightAware ADS-B
Wed 12:53:00 AM 56.4917 14.9295 267° West 475 547 34,000  Level FlightAware ADS-B
Wed 12:53:31 AM 56.4888 14.8197 267° West 476 548 34,000  Level FlightAware ADS-B
Wed 12:54:05 AM 56.4848 14.6758 267° West 477 549 34,000  Level FlightAware ADS-B
Wed 12:54:36 AM 56.4813 14.5521 267° West 477 549 34,000  Level FlightAware ADS-B
Wed 12:55:12 AM 56.4768 14.4035 267° West 476 548 34,000  Level FlightAware ADS-B
Wed 12:55:42 AM 56.4733 14.2888 267° West 474 545 34,000  Level FlightAware ADS-B
Wed 12:56:21 AM 56.4682 14.1327 267° West 472 543 34,000  Level FlightAware ADS-B
Wed 12:56:54 AM 56.4668 14.0069 269° West 467 537 34,000  Level FlightAware ADS-B
Wed 12:57:24 AM 56.4675 13.8883 271° West 467 537 34,000  Level FlightAware ADS-B
Wed 12:57:54 AM 56.4675 13.7753 270° West 468 539 34,000  Level FlightAware ADS-B
Wed 12:58:30 AM 56.4668 13.6303 270° West 469 540 34,000  Level FlightAware ADS-B
Wed 12:59:00 AM 56.4661 13.5160 269° West 470 541 34,000  Level FlightAware ADS-B
Wed 12:59:34 AM 56.4652 13.3807 269° West 470 541 34,000  Level FlightAware ADS-B
Wed 01:00:04 AM 56.4642 13.2612 269° West 471 542 34,000  Level FlightAware ADS-B
Wed 01:00:35 AM 56.4632 13.1453 269° West 470 541 34,000  Level FlightAware ADS-B
Wed 01:01:05 AM 56.4619 13.0234 269° West 471 542 34,000  Level FlightAware ADS-B
Wed 01:01:36 AM 56.4607 12.9037 269° West 471 542 34,000  Level FlightAware ADS-B
Wed 01:02:10 AM 56.4590 12.7705 269° West 471 542 34,000  Level FlightAware ADS-B
Wed 01:02:40 AM 56.4575 12.6516 269° West 472 543 34,000  Level FlightAware ADS-B
Wed 01:03:24 AM 56.4551 12.4816 269° West 471 542 34,000  Level FlightAware ADS-B
Wed 01:04:04 AM 56.4526 12.3251 268° West 471 542 34,000  Level FlightAware ADS-B
Wed 01:04:34 AM 56.4507 12.2056 268° West 470 541 34,000  Level FlightAware ADS-B
Wed 01:05:05 AM 56.4486 12.0863 268° West 469 540 34,000  Level FlightAware ADS-B
Wed 01:05:35 AM 56.4465 11.9747 268° West 468 539 34,000  Level FlightAware ADS-B
Wed 01:06:15 AM 56.4433 11.8125 268° West 468 539 34,000  Level FlightAware ADS-B
Wed 01:06:45 AM 56.4409 11.6926 268° West 469 540 34,000  Level FlightAware ADS-B
Wed 01:07:24 AM 56.4376 11.5461 268° West 468 539 34,000  Level FlightAware ADS-B
Wed 01:07:55 AM 56.4348 11.4222 268° West 468 539 34,000  Level FlightAware ADS-B
Wed 01:08:36 AM 56.4310 11.2676 268° West 468 539 34,000  Level FlightAware ADS-B
Wed 01:09:06 AM 56.4279 11.1448 267° West 467 537 34,000  Level FlightAware ADS-B
Wed 01:09:45 AM 56.4238 10.9895 267° West 466 536 34,000  Level FlightAware ADS-B
Wed 01:10:16 AM 56.4206 10.8720 267° West 467 537 34,000  Level FlightAware ADS-B
Wed 01:10:46 AM 56.4174 10.7619 267° West 467 537 34,000 300 Level FlightAware ADS-B
Wed 01:11:16 AM 56.4138 10.6386 267° West 469 540 34,300 590 Climbing FlightAware ADS-B
Wed 01:11:47 AM 56.4104 10.5261 267° West 471 542 34,600 676 Climbing FlightAware ADS-B
Wed 01:12:27 AM 56.4054 10.3672 267° West 472 543 35,100 845 Climbing FlightAware ADS-B
Wed 01:12:58 AM 56.4016 10.2496 267° West 471 542 35,600 885 Climbing FlightAware ADS-B
Wed 01:13:28 AM 56.3976 10.1315 267° West 471 542 36,000 393 Climbing FlightAware ADS-B
Wed 01:13:59 AM 56.3932 10.0019 267° West 478 550 36,000  Level FlightAware ADS-B
Wed 01:14:39 AM 56.3876 9.8442 266° West 478 550 36,000  Level FlightAware ADS-B
Wed 01:15:09 AM 56.3833 9.7303 266° West 477 549 36,000  Level FlightAware ADS-B
Wed 01:15:39 AM 56.3785 9.6029 266° West 477 549 36,000  Level FlightAware ADS-B
Wed 01:16:15 AM 56.3731 9.4631 266° West 475 547 36,000  Level FlightAware ADS-B
Wed 01:16:51 AM 56.3677 9.3286 266° West 475 547 36,000  Level FlightAware ADS-B
Wed 01:17:21 AM 56.3627 9.2053 266° West 474 545 36,000  Level FlightAware ADS-B
Wed 01:18:01 AM 56.3564 9.0570 266° West 473 544 36,000  Level FlightAware ADS-B
Wed 01:18:31 AM 56.3509 8.9301 266° West 473 544 36,000  Level FlightAware ADS-B
Wed 01:19:03 AM 56.3453 8.8025 265° West 472 543 36,000  Level FlightAware ADS-B
Wed 01:19:43 AM 56.3384 8.6508 265° West 470 541 36,000  Level FlightAware ADS-B
Wed 01:20:13 AM 56.3329 8.5314 265° West 470 541 36,000  Level FlightAware ADS-B
Wed 01:20:53 AM 56.3256 8.3802 265° West 470 541 36,000  Level FlightAware ADS-B
Wed 01:21:27 AM 56.3187 8.2386 265° West 467 537 36,000  Level FlightAware ADS-B
Wed 01:22:02 AM 56.3122 8.1093 265° West 467 537 36,000  Level FlightAware ADS-B
Wed 01:22:41 AM 56.3060 7.9860 265° West 465 535 36,000  Level FlightAware ADS-B
Wed 01:23:35 AM 56.2934 7.7467 265° West 465 535 36,000  Level FlightAware ADS-B
Wed 01:24:10 AM 56.2864 7.6174 264° West 465 535 36,000  Level FlightAware ADS-B
Wed 01:24:43 AM 56.2796 7.4920 264° West 466 536 36,000  Level FlightAware ADS-B
Wed 01:25:16 AM 56.2723 7.3622 264° West 469 540 36,000  Level FlightAware ADS-B
Wed 01:25:59 AM 56.2626 7.1923 264° West 470 541 36,000  Level FlightAware ADS-B
Wed 01:28:00 AM 56.2561 6.7281 269° West  Level Estimated
Wed 01:29:00 AM 56.2523 6.4979 268° West  Level Estimated
Wed 01:30:00 AM 56.2481 6.2678 268° West  Level Estimated
Wed 01:31:00 AM 56.2434 6.0378 268° West  Level Estimated
Wed 01:31:38 AM 56.1772 5.8814 268° West 1 1 36,000  Level FlightAware UK
Wed 01:32:08 AM 56.1707 5.7620 264° West 1 1 36,000  Level FlightAware UK
Wed 01:32:38 AM 56.1628 5.6440 263° West 1 1 36,000  Level FlightAware UK
Wed 01:33:08 AM 56.1547 5.5263 263° West 1 1 36,000  Level FlightAware UK
Wed 01:33:38 AM 56.1463 5.4096 263° West 1 1 36,000  Level FlightAware UK
Wed 01:34:13 AM 56.1366 5.2694 263° West 1 1 36,000  Level FlightAware UK
Wed 01:34:43 AM 56.1281 5.1528 263° West 1 1 36,000  Level FlightAware UK
Wed 01:34:55 AM 56.1246 5.1066 262° West 460 529 36,000  Level FlightAware UK
Wed 01:35:25 AM 56.1157 4.9912 262° West 460 529 36,000  Level FlightAware UK
Wed 01:35:55 AM 56.1078 4.8744 263° West 460 529 36,000  Level FlightAware UK
Wed 01:36:25 AM 56.0985 4.7595 262° West 458 527 36,000  Level FlightAware UK
Wed 01:36:55 AM 56.0891 4.6447 262° West 458 527 36,000  Level FlightAware UK
Wed 01:37:31 AM 56.0782 4.5077 262° West 456 525 36,000  Level FlightAware UK
Wed 01:38:01 AM 56.0687 4.3937 262° West 456 525 36,000  Level FlightAware UK
Wed 01:38:31 AM 56.0589 4.2796 261° West 456 525 36,000  Level FlightAware UK
Wed 01:39:07 AM 56.0476 4.1443 262° West 458 527 36,000  Level FlightAware UK
Wed 01:39:37 AM 56.0379 4.0291 261° West 458 527 36,000  Level FlightAware UK
Wed 01:40:13 AM 56.0259 3.8918 261° West 458 527 36,000  Level FlightAware UK
Wed 01:40:49 AM 56.0141 3.7556 261° West 460 529 36,000  Level FlightAware UK
Wed 01:41:25 AM 56.0022 3.6176 261° West 460 529 36,000  Level FlightAware UK
Wed 01:42:01 AM 55.9901 3.4808 261° West 458 527 36,000  Level FlightAware UK
Wed 01:42:31 AM 55.9796 3.3658 261° West 458 527 36,000  Level FlightAware UK
Wed 01:43:06 AM 55.9671 3.2310 261° West 458 527 36,000  Level FlightAware UK
Wed 01:43:36 AM 55.9569 3.1177 261° West 456 525 36,000  Level FlightAware UK
Wed 01:44:12 AM 55.9445 2.9821 261° West 456 525 36,000  Level FlightAware UK
Wed 01:44:48 AM 55.9316 2.8466 260° West 456 525 36,000  Level FlightAware UK
Wed 01:45:18 AM 55.9208 2.7335 260° West 454 522 36,000  Level FlightAware UK
Wed 01:45:54 AM 55.9078 2.5986 260° West 456 525 36,000  Level FlightAware UK
Wed 01:46:24 AM 55.8970 2.4853 260° West 456 525 36,000  Level FlightAware UK
Wed 01:46:54 AM 55.8889 2.3714 263° West 456 525 36,000  Level FlightAware UK
Wed 01:47:24 AM 55.8881 2.2575 269° West 456 525 36,000  Level FlightAware UK
Wed 01:48:00 AM 55.8920 2.1216 273° West 458 527 36,000  Level FlightAware UK
Wed 01:48:42 AM 55.8949 1.9620 272° West 460 529 36,000  Level FlightAware UK
Wed 01:49:06 AM 55.8968 1.8711 272° West 463 533 36,000  Level FlightAware ADS-B
Wed 01:49:37 AM 55.8989 1.7572 272° West 460 529 36,000  Level FlightAware ADS-B
Wed 01:50:12 AM 55.9010 1.6199 272° West 460 529 36,000  Level FlightAware UK
Wed 01:50:28 AM 55.9023 1.5643 272° West 457 526 36,000  Level FlightAware ADS-B
Wed 01:51:13 AM 55.9049 1.3965 272° West 452 520 36,000  Level FlightAware ADS-B
Wed 01:51:16 AM 55.9052 1.3829 272° West 452 520 36,000  Level FlightAware ADS-B
Wed 01:51:39 AM 55.9063 1.3078 272° West 452 520 36,000  Level FlightAware ADS-B (EGNT / NCL)
Wed 01:51:53 AM 55.9071 1.2485 272° West 452 520 36,000  Level FlightAware ADS-B
Wed 01:51:59 AM 55.9074 1.2262 271° West 452 520 36,000  Level FlightAware ADS-B
Wed 01:52:19 AM 55.9042 1.1566 265° West 456 525 36,000  Level FlightAware ADS-B (EGNT / NCL)
Wed 01:52:54 AM 55.8902 1.0295 259° West 457 526 36,000  Level FlightAware ADS-B (EGNT / NCL)
Wed 01:52:59 AM 55.8873 1.0028 259° West 455 524 36,000  Level FlightAware ADS-B
Wed 01:53:31 AM 55.8746 0.8868 259° West 457 526 36,000  Level FlightAware ADS-B (EGNT / NCL)
Wed 01:53:58 AM 55.8654 0.8043 259° West 458 527 36,000  Level FlightAware ADS-B (EGNT / NCL)
Wed 01:54:19 AM 55.8549 0.7102 259° West 459 528 36,000  Level FlightAware ADS-B (EGNT / NCL)
Wed 01:54:23 AM 55.8530 0.6936 259° West 458 527 36,000  Level FlightAware ADS-B
Wed 01:54:28 AM 55.8509 0.6747 259° West 458 527 36,000  Level FlightAware ADS-B
Wed 01:55:00 AM 55.8418 0.5944 259° West 460 529 36,000  Level FlightAware ADS-B (EGNT / NCL)
Wed 01:55:34 AM 55.8235 0.4349 259° West 460 529 36,000  Level FlightAware ADS-B
Wed 01:56:04 AM 55.8102 0.3198 258° West 461 531 36,000  Level FlightAware ADS-B
Wed 01:56:36 AM 55.7963 0.2007 258° West 463 533 36,000  Level FlightAware ADS-B
Wed 01:57:06 AM 55.7832 0.0895 258° West 465 535 36,000  Level FlightAware ADS-B
Wed 01:57:37 AM 55.7706 -0.0168 258° West 464 534 36,000  Level FlightAware ADS-B
Wed 01:58:11 AM 55.7590 -0.1142 258° West 464 534 36,000  Level FlightAware ADS-B
Wed 01:59:04 AM 55.7307 -0.3487 258° West 465 535 36,000  Level FlightAware ADS-B
Wed 01:59:35 AM 55.7174 -0.4574 258° West 465 535 36,000  Level FlightAware ADS-B
Wed 02:00:06 AM 55.7039 -0.5663 258° West 464 534 36,000  Level FlightAware ADS-B (EGNT / NCL)
Wed 02:00:38 AM 55.6879 -0.6957 258° West 464 534 36,000  Level FlightAware ADS-B
Wed 02:01:16 AM 55.6705 -0.8352 258° West 463 533 36,000  Level FlightAware ADS-B (EGNT / NCL)
Wed 02:01:47 AM 55.6559 -0.9508 257° West 463 533 36,000  Level FlightAware ADS-B
Wed 02:02:17 AM 55.6419 -1.0608 257° West 462 532 36,000  Level FlightAware ADS-B
Wed 02:02:47 AM 55.6284 -1.1660 257° West 463 533 36,000  Level FlightAware ADS-B (EGNT / NCL)
Wed 02:02:54 AM 55.6244 -1.1971 257° West 463 533 36,000  Level FlightAware ADS-B
Wed 02:03:07 AM 55.6182 -1.2449 257° West 461 531 36,000  Level FlightAware ADS-B
Wed 02:03:14 AM 55.6185 -1.2433 76° East 463 533 36,000  Level FlightAware ADS-B
Wed 02:03:24 AM 55.6125 -1.2896 257° West 461 531 36,000  Level FlightAware ADS-B (EPKK / KRK)
Wed 02:03:54 AM 55.5985 -1.3972 257° West 462 532 36,000  Level FlightAware ADS-B (EPKK / KRK)
Wed 02:04:07 AM 55.5894 -1.4662 257° West 462 532 36,000  Level FlightAware ADS-B
Wed 02:04:26 AM 55.5802 -1.5363 257° West 464 534 36,000  Level FlightAware ADS-B
Wed 02:04:57 AM 55.5682 -1.6267 257° West 465 535 36,000  Level FlightAware ADS-B (EGNT / NCL)
Wed 02:05:06 AM 55.5627 -1.6685 257° West 465 535 36,000  Level FlightAware ADS-B (EPKK / KRK)
Wed 02:05:36 AM 55.5467 -1.7881 257° West 466 536 36,000  Level FlightAware ADS-B (EGNT / NCL)
Wed 02:05:47 AM 55.5406 -1.8337 257° West 465 535 36,000  Level FlightAware ADS-B
Wed 02:06:07 AM 55.5303 -1.9094 257° West 465 535 36,000  Level FlightAware ADS-B
Wed 02:06:17 AM 55.5255 -1.9448 257° West 465 535 36,000  Level FlightAware ADS-B
Wed 02:06:26 AM 55.5209 -1.9793 257° West 465 535 36,000  Level FlightAware ADS-B
Wed 02:06:41 AM 55.5209 -1.9793 257° West 466 536 36,000  Level FlightAware ADS-B
Wed 02:07:11 AM 55.4984 -2.1436 256° West 463 533 36,000  Level FlightAware ADS-B
Wed 02:07:14 AM 55.4969 -2.1546 256° West 463 533 36,000  Level FlightAware ADS-B
Wed 02:07:26 AM 55.4929 -2.1835 256° West 463 533 36,000  Level FlightAware ADS-B (EPKK / KRK)
Wed 02:07:35 AM 55.4861 -2.2329 256° West 463 533 36,000  Level FlightAware ADS-B
Wed 02:08:07 AM 55.4703 -2.3462 256° West 465 535 36,000  Level FlightAware ADS-B (EGNT / NCL)
Wed 02:08:38 AM 55.4562 -2.4470 256° West 465 535 36,000  Level FlightAware ADS-B (EGNT / NCL)
Wed 02:09:08 AM 55.4389 -2.5704 256° West 465 535 36,000  Level FlightAware ADS-B (EGNT / NCL)
Wed 02:09:38 AM 55.4233 -2.6807 256° West 466 536 36,000  Level FlightAware ADS-B (EGNT / NCL)
Wed 02:10:08 AM 55.4073 -2.7932 256° West 466 536 36,000  Level FlightAware ADS-B (EGNT / NCL)
Wed 02:10:39 AM 55.3930 -2.8921 256° West 465 535 36,000  Level FlightAware ADS-B (EPKK / KRK)
Wed 02:11:20 AM 55.3712 -3.0435 256° West 465 535 36,000  Level FlightAware ADS-B (EPKK / KRK)
Wed 02:11:58 AM 55.3495 -3.1954 256° West 465 535 36,000  Level FlightAware ADS-B
Wed 02:12:36 AM 55.3319 -3.3182 256° West 464 534 36,000  Level FlightAware ADS-B (EPKK / KRK)
Wed 02:13:12 AM 55.3129 -3.4499 256° West 463 533 36,000  Level FlightAware ADS-B (EPKK / KRK)
Wed 02:13:43 AM 55.2968 -3.5599 256° West 463 533 36,000  Level FlightAware ADS-B (EPKK / KRK)
Wed 02:14:33 AM 55.2708 -3.7407 256° West 462 532 36,000  Level FlightAware ADS-B (EPKK / KRK)
Wed 02:15:02 AM 55.2528 -3.8583 255° West 461 531 36,000  Level FlightAware ADS-B
Wed 02:15:39 AM 55.2309 -3.9974 255° West 458 527 36,000  Level FlightAware UK
Wed 02:15:45 AM 55.2313 -3.9959 255° West 457 526 36,000  Level FlightAware ADS-B (EPKK / KRK)
Wed 02:16:04 AM 55.2206 -4.0640 255° West 459 528 36,000  Level FlightAware ADS-B
Wed 02:16:36 AM 55.2020 -4.1834 255° West 457 526 36,000  Level FlightAware ADS-B (EPKK / KRK)
Wed 02:17:12 AM 55.1814 -4.3133 255° West 457 526 36,000  Level FlightAware ADS-B (EPKK / KRK)
Wed 02:17:45 AM 55.1603 -4.4459 255° West 456 525 36,000  Level FlightAware UK
Wed 02:17:52 AM 55.1588 -4.4556 255° West 458 527 36,000  Level FlightAware ADS-B (EPKK / KRK)
Wed 02:18:25 AM 55.1397 -4.5748 254° West 457 526 36,000  Level FlightAware ADS-B (EPKK / KRK)
Wed 02:18:57 AM 55.1216 -4.6873 254° West 457 526 36,000  Level FlightAware ADS-B (EPKK / KRK)
Wed 02:19:27 AM 55.1018 -4.8083 254° West 458 527 36,000  Level FlightAware UK
Wed 02:19:38 AM 55.0985 -4.8294 254° West 458 527 36,000  Level FlightAware ADS-B (EPKK / KRK)
Wed 02:20:18 AM 55.0750 -4.9723 254° West 461 531 36,000  Level FlightAware ADS-B (EPKK / KRK)
Wed 02:20:53 AM 55.0546 -5.0958 254° West 460 529 36,000  Level FlightAware ADS-B (EPKK / KRK)
Wed 02:21:34 AM 55.0303 -5.2416 254° West 458 527 36,000  Level FlightAware ADS-B (EPKK / KRK)
Wed 02:22:13 AM 55.0051 -5.3921 254° West 458 527 36,000  Level FlightAware ADS-B
Wed 02:22:45 AM 54.9880 -5.4928 254° West 458 527 36,000  Level FlightAware ADS-B (EPKK / KRK)
Wed 02:23:17 AM 54.9687 -5.6062 254° West 458 527 36,000  Level FlightAware ADS-B (EPKK / KRK)
Wed 02:23:51 AM 54.9456 -5.7409 254° West 456 525 36,000  Level FlightAware UK
Wed 02:24:00 AM 54.9433 -5.7547 254° West 458 527 36,000  Level FlightAware ADS-B (EPKK / KRK)
Wed 02:24:40 AM 54.9181 -5.9001 253° West 458 527 36,000  Level FlightAware ADS-B (EPKK / KRK)
Wed 02:25:10 AM 54.9126 -5.9315 253° West 459 528 36,000  Level FlightAware ADS-B
Wed 02:25:44 AM 54.8791 -6.1231 253° West 458 527 36,000  Level FlightAware ADS-B (EPKK / KRK)
Wed 02:26:20 AM 54.8546 -6.2620 253° West 457 526 36,000  Level FlightAware ADS-B
Wed 02:26:56 AM 54.8348 -6.3735 253° West 454 522 36,000  Level FlightAware ADS-B (EPKK / KRK)
Wed 02:27:07 AM 54.8316 -6.3914 253° West 456 525 36,000  Level FlightAware ADS-B
Wed 02:27:12 AM 54.8232 -6.4384 253° West 456 525 36,000  Level FlightAware ADS-B
Wed 02:27:57 AM 54.7943 -6.6005 253° West 456 525 36,000  Level FlightAware UK
Wed 02:28:02 AM 54.7940 -6.6007 253° West 454 522 36,000  Level FlightAware ADS-B
Wed 02:28:16 AM 54.7832 -6.6607 253° West 454 522 36,000  Level FlightAware ADS-B
Wed 02:28:53 AM 54.7592 -6.7930 253° West 454 522 36,000  Level FlightAware ADS-B (EIDW / DUB)
Wed 02:29:08 AM 54.7499 -6.8439 252° West 454 522 36,000  Level FlightAware ADS-B (EIDW / DUB)
Wed 02:29:40 AM 54.7316 -6.9434 252° West 453 521 36,000  Level FlightAware ADS-B (EPKK / KRK)
Wed 02:30:13 AM 54.7085 -7.0690 252° West 455 524 36,000  Level FlightAware ADS-B
Wed 02:30:44 AM 54.6887 -7.1759 252° West 456 525 36,000  Level FlightAware ADS-B
Wed 02:30:55 AM 54.6840 -7.2010 252° West 455 524 36,000  Level FlightAware ADS-B (EPKK / KRK)
Wed 02:31:25 AM 54.6727 -7.2615 252° West 456 525 36,000  Level FlightAware ADS-B
Wed 02:31:58 AM 54.6541 -7.3604 252° West 456 525 36,000  Level FlightAware ADS-B (EIDW / DUB)
Wed 02:32:29 AM 54.6208 -7.5369 252° West 456 525 36,000  Level FlightAware ADS-B
Wed 02:33:02 AM 54.5983 -7.6562 252° West 458 527 36,000  Level FlightAware UK
Wed 02:33:14 AM 54.5922 -7.6871 252° West 456 525 36,000  Level FlightAware ADS-B
Wed 02:33:53 AM 54.5645 -7.8281 251° West 455 524 36,000  Level FlightAware ADS-B
Wed 02:34:23 AM 54.5360 -7.9231 243° Southwest 455 524 36,000  Level FlightAware ADS-B
Wed 02:34:54 AM 54.5046 -8.0241 242° Southwest 455 524 36,000  Level FlightAware ADS-B
Wed 02:35:32 AM 54.4667 -8.1459 242° Southwest 458 527 36,000  Level FlightAware UK
Wed 02:35:49 AM 54.4512 -8.1956 242° Southwest 456 525 36,000  Level FlightAware ADS-B
Wed 02:36:27 AM 54.4134 -8.3162 242° Southwest 455 524 36,000  Level FlightAware ADS-B
Wed 02:36:57 AM 54.3850 -8.4059 242° Southwest 455 524 36,000  Level FlightAware ADS-B
Wed 02:37:30 AM 54.3502 -8.5158 242° Southwest 455 524 36,000  Level FlightAware ADS-B
Wed 02:38:01 AM 54.3201 -8.6109 242° Southwest 454 522 36,000  Level FlightAware ADS-B
Wed 02:38:40 AM 54.2813 -8.7322 241° Southwest 453 521 36,000  Level FlightAware ADS-B
Wed 02:39:20 AM 54.2400 -8.8614 241° Southwest 453 521 36,000  Level FlightAware ADS-B
Wed 02:39:50 AM 54.2089 -8.9580 241° Southwest 453 521 36,000  Level FlightAware ADS-B
Wed 02:40:24 AM 54.1755 -9.0611 241° Southwest 453 521 36,000  Level FlightAware ADS-B
Wed 02:40:55 AM 54.1447 -9.1561 241° Southwest 453 521 36,000  Level FlightAware ADS-B
Wed 02:41:31 AM 54.1072 -9.2710 241° Southwest 453 521 36,000  Level FlightAware ADS-B
Wed 02:42:01 AM 54.0764 -9.3651 241° Southwest 454 522 36,000  Level FlightAware ADS-B
Wed 02:42:31 AM 54.0461 -9.4571 241° Southwest 454 522 36,000  Level FlightAware ADS-B
Wed 02:45:00 AM 53.9656 -9.9799 256° West  Level Estimated
Wed 02:46:00 AM 53.9326 -10.1899 255° West  Level Estimated
Wed 02:46:40 AM 53.8676 -9.9930 255° West 456 525 36,000  Level FlightAware ADS-B
Wed 02:47:45 AM 53.7228 -10.4196 240° Southwest 458 527 36,000  Level FlightAware ADS-B
Wed 02:50:00 AM 53.6468 -10.8882 255° West  Level Estimated
Wed 02:51:00 AM 53.6124 -11.0960 254° West  Level Estimated
Wed 02:52:00 AM 53.5777 -11.3034 254° West  Level Estimated
Wed 02:53:00 AM 53.5426 -11.5104 254° West  Level Estimated
Wed 02:54:00 AM 53.5071 -11.7172 254° West  Level Estimated
Wed 02:55:00 AM 53.4713 -11.9235 254° West  Level Estimated
Wed 02:56:00 AM 53.4352 -12.1295 254° West  Level Estimated
Wed 02:57:00 AM 53.3987 -12.3352 253° West  Level Estimated
Wed 02:58:00 AM 53.3618 -12.5405 253° West  Level Estimated
Wed 02:59:00 AM 53.3246 -12.7455 253° West  Level Estimated
Wed 03:00:00 AM 53.2870 -12.9501 253° West  Level Estimated
Wed 03:01:00 AM 53.2491 -13.1543 253° West  Level Estimated
Wed 03:02:00 AM 53.2109 -13.3582 253° West  Level Estimated
Wed 03:03:00 AM 53.1722 -13.5617 253° West  Level Estimated
Wed 03:04:00 AM 53.1333 -13.7648 252° West  Level Estimated
Wed 03:05:00 AM 53.0940 -13.9676 252° West  Level Estimated
Wed 03:06:00 AM 53.0544 -14.1700 252° West  Level Estimated
Wed 03:07:00 AM 53.0144 -14.3720 252° West  Level Estimated
Wed 03:08:00 AM 52.9740 -14.5737 252° West  Level Estimated
Wed 03:09:00 AM 52.9334 -14.7750 252° West  Level Estimated
Wed 03:10:00 AM 52.8923 -14.9759 251° West  Level Estimated
Wed 03:11:00 AM 52.8510 -15.1764 251° West  Level Estimated
Wed 03:12:00 AM 52.8093 -15.3765 251° West  Level Estimated
Wed 03:13:00 AM 52.7673 -15.5762 251° West  Level Estimated
Wed 03:14:00 AM 52.7249 -15.7756 251° West  Level Estimated
Wed 03:15:00 AM 52.6823 -15.9746 251° West  Level Estimated
Wed 03:16:00 AM 52.6392 -16.1731 250° West  Level Estimated
Wed 03:17:00 AM 52.5959 -16.3713 250° West  Level Estimated
Wed 03:18:00 AM 52.5522 -16.5691 250° West  Level Estimated
Wed 03:19:00 AM 52.5082 -16.7665 250° West  Level Estimated
Wed 03:20:00 AM 52.4638 -16.9635 250° West  Level Estimated
Wed 03:21:00 AM 52.4192 -17.1601 250° West  Level Estimated
Wed 03:22:00 AM 52.3742 -17.3563 249° West  Level Estimated
Wed 03:23:00 AM 52.3289 -17.5521 249° West  Level Estimated
Wed 03:24:00 AM 52.2832 -17.7475 249° West  Level Estimated
Wed 03:25:00 AM 52.2373 -17.9425 249° West  Level Estimated
Wed 03:26:00 AM 52.1910 -18.1371 249° West  Level Estimated
Wed 03:27:00 AM 52.1444 -18.3313 249° West  Level Estimated
Wed 03:28:00 AM 52.0975 -18.5251 249° West  Level Estimated
Wed 03:29:00 AM 52.0502 -18.7185 248° West  Level Estimated
Wed 03:30:00 AM 52.0027 -18.9114 248° West  Level Estimated
Wed 03:31:00 AM 51.9548 -19.1040 248° West  Level Estimated
Wed 03:32:00 AM 51.9066 -19.2961 248° West  Level Estimated
Wed 03:33:00 AM 51.8581 -19.4878 248° West  Level Estimated
Wed 03:34:00 AM 51.8093 -19.6791 248° West  Level Estimated
Wed 03:35:00 AM 51.7602 -19.8700 247° West  Level Estimated
Wed 03:36:00 AM 51.7108 -20.0605 247° West  Level Estimated
Wed 03:37:00 AM 51.6611 -20.2506 247° West  Level Estimated
Wed 03:38:00 AM 51.6110 -20.4402 247° West  Level Estimated
Wed 03:39:00 AM 51.5607 -20.6294 247° West  Level Estimated
Wed 03:39:00 AM 51.0000 -20.0000 249° West 451 519 36,000  Level ETMS Enhanced Traffic Management System
Wed 03:40:00 AM 51.5101 -20.8183 247° West  Level Estimated
Wed 03:41:00 AM 51.4591 -21.0066 247° West  Level Estimated
Wed 03:42:00 AM 51.4079 -21.1946 246° West  Level Estimated
Wed 03:43:00 AM 51.3563 -21.3821 246° West  Level Estimated
Wed 03:44:00 AM 51.3045 -21.5693 246° West  Level Estimated
Wed 03:45:00 AM 50.7260 -21.1099 248° West 451 519 36,000  Level FlightAware Transoceanic
Wed 03:46:00 AM 50.6793 -21.2936 248° West 451 519 36,000  Level FlightAware Transoceanic
Wed 03:47:00 AM 50.6324 -21.4770 248° West 451 519 36,000  Level FlightAware Transoceanic
Wed 03:48:00 AM 50.5851 -21.6600 248° West 451 519 36,000  Level FlightAware Transoceanic
Wed 03:49:00 AM 50.5376 -21.8426 248° West 451 519 36,000  Level FlightAware Transoceanic
Wed 03:50:00 AM 50.4897 -22.0249 248° West 451 519 36,000  Level FlightAware Transoceanic
Wed 03:51:00 AM 50.4416 -22.2067 247° West 451 519 36,000  Level FlightAware Transoceanic
Wed 03:52:00 AM 50.3932 -22.3882 247° West 451 519 36,000  Level FlightAware Transoceanic
Wed 03:53:00 AM 50.3446 -22.5694 247° West 451 519 36,000  Level FlightAware Transoceanic
Wed 03:54:00 AM 50.2956 -22.7501 247° West 451 519 36,000  Level FlightAware Transoceanic
Wed 03:55:00 AM 50.2464 -22.9305 247° West 451 519 36,000  Level FlightAware Transoceanic
Wed 03:56:00 AM 50.1968 -23.1105 247° West 451 519 36,000  Level FlightAware Transoceanic
Wed 03:57:00 AM 50.1471 -23.2902 247° West 451 519 36,000  Level FlightAware Transoceanic
Wed 03:58:00 AM 50.0970 -23.4694 246° West 451 519 36,000  Level FlightAware Transoceanic
Wed 03:59:00 AM 50.0466 -23.6483 246° West 451 519 36,000  Level FlightAware Transoceanic
Wed 04:00:00 AM 49.9960 -23.8269 246° West 451 519 36,000  Level FlightAware Transoceanic
Wed 04:01:00 AM 49.9451 -24.0050 246° West 451 519 36,000  Level FlightAware Transoceanic
Wed 04:02:00 AM 49.8940 -24.1828 246° West 451 519 36,000  Level FlightAware Transoceanic
Wed 04:03:00 AM 49.8425 -24.3601 246° West 451 519 36,000  Level FlightAware Transoceanic
Wed 04:04:00 AM 49.7908 -24.5371 246° West 451 519 36,000  Level FlightAware Transoceanic
Wed 04:05:00 AM 49.7388 -24.7138 245° Southwest 451 519 36,000  Level FlightAware Transoceanic
Wed 04:06:00 AM 49.6866 -24.8900 245° Southwest 451 519 36,000  Level FlightAware Transoceanic
Wed 04:07:00 AM 49.6341 -25.0659 245° Southwest 451 519 36,000  Level FlightAware Transoceanic
Wed 04:08:00 AM 49.5813 -25.2414 245° Southwest 451 519 36,000  Level FlightAware Transoceanic
Wed 04:09:00 AM 49.5283 -25.4165 245° Southwest 451 519 36,000  Level FlightAware Transoceanic
Wed 04:10:00 AM 49.4750 -25.5912 245° Southwest 451 519 36,000  Level FlightAware Transoceanic
Wed 04:11:00 AM 49.4214 -25.7656 245° Southwest 451 519 36,000  Level FlightAware Transoceanic
Wed 04:12:00 AM 49.3676 -25.9396 245° Southwest 451 519 36,000  Level FlightAware Transoceanic
Wed 04:13:00 AM 49.3135 -26.1131 244° Southwest 451 519 36,000  Level FlightAware Transoceanic
Wed 04:14:00 AM 49.2591 -26.2863 244° Southwest 451 519 36,000  Level FlightAware Transoceanic
Wed 04:15:00 AM 49.2045 -26.4592 244° Southwest 451 519 36,000  Level FlightAware Transoceanic
Wed 04:16:00 AM 49.1497 -26.6316 244° Southwest 451 519 36,000  Level FlightAware Transoceanic
Wed 04:17:00 AM 49.0946 -26.8037 244° Southwest 451 519 36,000  Level FlightAware Transoceanic
Wed 04:18:00 AM 49.0392 -26.9753 244° Southwest 451 519 36,000  Level FlightAware Transoceanic
Wed 04:19:00 AM 48.9836 -27.1466 244° Southwest 451 519 36,000  Level FlightAware Transoceanic
Wed 04:20:00 AM 48.9277 -27.3175 243° Southwest 451 519 36,000  Level FlightAware Transoceanic
Wed 04:21:00 AM 48.8715 -27.4881 243° Southwest 451 519 36,000  Level FlightAware Transoceanic
Wed 04:22:00 AM 48.8152 -27.6582 243° Southwest 451 519 36,000  Level FlightAware Transoceanic
Wed 04:23:00 AM 48.7585 -27.8280 243° Southwest 451 519 36,000  Level FlightAware Transoceanic
Wed 04:24:00 AM 48.7016 -27.9974 243° Southwest 451 519 36,000  Level FlightAware Transoceanic
Wed 04:25:00 AM 48.6445 -28.1663 243° Southwest 451 519 36,000  Level FlightAware Transoceanic
Wed 04:26:00 AM 48.5871 -28.3350 243° Southwest 451 519 36,000  Level FlightAware Transoceanic
Wed 04:27:00 AM 48.5295 -28.5032 243° Southwest 451 519 36,000  Level FlightAware Transoceanic
Wed 04:28:00 AM 48.4716 -28.6710 242° Southwest 451 519 36,000  Level FlightAware Transoceanic
Wed 04:29:00 AM 48.4135 -28.8385 242° Southwest 451 519 36,000  Level FlightAware Transoceanic
Wed 04:30:00 AM 48.3552 -29.0056 242° Southwest 451 519 36,000  Level FlightAware Transoceanic
Wed 04:31:00 AM 48.2966 -29.1723 242° Southwest 451 519 36,000  Level FlightAware Transoceanic
Wed 04:32:00 AM 48.2377 -29.3386 242° Southwest 451 519 36,000  Level FlightAware Transoceanic
Wed 04:33:00 AM 48.1786 -29.5045 242° Southwest 451 519 36,000  Level FlightAware Transoceanic
Wed 04:34:00 AM 48.1193 -29.6700 242° Southwest 451 519 36,000  Level FlightAware Transoceanic
Wed 04:35:00 AM 48.0598 -29.8352 242° Southwest 451 519 36,000  Level FlightAware Transoceanic
Wed 04:36:00 AM 47.9988 -30.0033 242° Southwest  Level FlightAware Approximate
Wed 04:37:00 AM 47.9978 -30.0068 244° Southwest  Level FlightAware Approximate
Wed 04:38:00 AM 47.9408 -30.1778 244° Southwest  Level FlightAware Approximate
Wed 04:39:00 AM 47.8836 -30.3485 244° Southwest  Level FlightAware Approximate
Wed 04:40:00 AM 47.8262 -30.5188 243° Southwest  Level FlightAware Approximate
Wed 04:41:00 AM 47.7685 -30.6887 243° Southwest  Level FlightAware Approximate
Wed 04:42:00 AM 47.7106 -30.8582 243° Southwest  Level FlightAware Approximate
Wed 04:43:00 AM 47.6524 -31.0274 243° Southwest  Level FlightAware Approximate
Wed 04:44:00 AM 47.5939 -31.1962 243° Southwest  Level FlightAware Approximate
Wed 04:45:00 AM 47.5353 -31.3646 243° Southwest  Level FlightAware Approximate
Wed 04:46:00 AM 47.4763 -31.5327 243° Southwest  Level FlightAware Approximate
Wed 04:47:00 AM 47.4171 -31.7003 243° Southwest  Level FlightAware Approximate
Wed 04:48:00 AM 47.3577 -31.8676 242° Southwest  Level FlightAware Approximate
Wed 04:49:00 AM 47.2981 -32.0345 242° Southwest  Level FlightAware Approximate
Wed 04:50:00 AM 47.2382 -32.2010 242° Southwest  Level FlightAware Approximate
Wed 04:51:00 AM 47.1780 -32.3672 242° Southwest  Level FlightAware Approximate
Wed 04:52:00 AM 47.1176 -32.5330 242° Southwest  Level FlightAware Approximate
Wed 04:53:00 AM 47.0570 -32.6983 242° Southwest  Level FlightAware Approximate
Wed 04:54:00 AM 46.9961 -32.8634 242° Southwest  Level FlightAware Approximate
Wed 04:55:00 AM 46.9350 -33.0280 242° Southwest  Level FlightAware Approximate
Wed 04:56:00 AM 46.8737 -33.1923 241° Southwest  Level FlightAware Approximate
Wed 04:57:00 AM 46.8121 -33.3562 241° Southwest  Level FlightAware Approximate
Wed 04:58:00 AM 46.7503 -33.5197 241° Southwest  Level FlightAware Approximate
Wed 04:59:00 AM 46.6883 -33.6828 241° Southwest  Level FlightAware Approximate
Wed 05:00:00 AM 46.6260 -33.8456 241° Southwest  Level FlightAware Approximate
Wed 05:01:00 AM 46.5635 -34.0080 241° Southwest  Level FlightAware Approximate
Wed 05:02:00 AM 46.5008 -34.1700 241° Southwest  Level FlightAware Approximate
Wed 05:03:00 AM 46.4379 -34.3316 241° Southwest  Level FlightAware Approximate
Wed 05:04:00 AM 46.3747 -34.4929 240° Southwest  Level FlightAware Approximate
Wed 05:05:00 AM 46.3113 -34.6538 240° Southwest  Level FlightAware Approximate
Wed 05:06:00 AM 46.2477 -34.8143 240° Southwest  Level FlightAware Approximate
Wed 05:07:00 AM 46.1838 -34.9745 240° Southwest  Level FlightAware Approximate
Wed 05:08:00 AM 46.1197 -35.1343 240° Southwest  Level FlightAware Approximate
Wed 05:09:00 AM 46.0554 -35.2937 240° Southwest  Level FlightAware Approximate
Wed 05:10:00 AM 45.9909 -35.4527 240° Southwest  Level FlightAware Approximate
Wed 05:11:00 AM 45.9262 -35.6114 240° Southwest  Level FlightAware Approximate
Wed 05:12:00 AM 45.8612 -35.7697 240° Southwest  Level FlightAware Approximate
Wed 05:13:00 AM 45.7960 -35.9276 239° Southwest  Level FlightAware Approximate
Wed 05:14:00 AM 45.7306 -36.0851 239° Southwest  Level FlightAware Approximate
Wed 05:15:00 AM 45.6650 -36.2423 239° Southwest  Level FlightAware Approximate
Wed 05:16:00 AM 45.5992 -36.3991 239° Southwest  Level FlightAware Approximate
Wed 05:17:00 AM 45.5331 -36.5556 239° Southwest  Level FlightAware Approximate
Wed 05:18:00 AM 45.4669 -36.7117 239° Southwest  Level FlightAware Approximate
Wed 05:19:00 AM 45.4004 -36.8674 239° Southwest  Level FlightAware Approximate
Wed 05:20:00 AM 45.3337 -37.0227 239° Southwest  Level FlightAware Approximate
Wed 05:21:00 AM 45.2668 -37.1777 239° Southwest  Level FlightAware Approximate
Wed 05:22:00 AM 45.1998 -37.3323 238° Southwest  Level FlightAware Approximate
Wed 05:23:00 AM 45.1325 -37.4866 238° Southwest  Level FlightAware Approximate
Wed 05:24:00 AM 45.0649 -37.6405 238° Southwest  Level FlightAware Approximate
Wed 05:25:00 AM 44.9976 -37.7943 239° Southwest  Level FlightAware Approximate
Wed 05:26:00 AM 44.9309 -37.9486 239° Southwest  Level FlightAware Approximate
Wed 05:27:00 AM 44.8640 -38.1025 239° Southwest  Level FlightAware Approximate
Wed 05:28:00 AM 44.7969 -38.2560 238° Southwest  Level FlightAware Approximate
Wed 05:29:00 AM 44.7296 -38.4092 238° Southwest  Level FlightAware Approximate
Wed 05:30:00 AM 44.6621 -38.5620 238° Southwest  Level FlightAware Approximate
Wed 05:31:00 AM 44.5944 -38.7145 238° Southwest  Level FlightAware Approximate
Wed 05:32:00 AM 44.5265 -38.8666 238° Southwest  Level FlightAware Approximate
Wed 05:33:00 AM 44.4583 -39.0182 237° Southwest  Level FlightAware Approximate
Wed 05:34:00 AM 44.3890 -39.1688 237° Southwest  Level FlightAware Approximate
Wed 05:35:00 AM 44.3196 -39.3190 237° Southwest  Level FlightAware Approximate
Wed 05:36:00 AM 44.2499 -39.4688 237° Southwest  Level FlightAware Approximate
Wed 05:37:00 AM 44.1800 -39.6183 237° Southwest  Level FlightAware Approximate
Wed 05:38:00 AM 44.1100 -39.7674 237° Southwest  Level FlightAware Approximate
Wed 05:39:00 AM 44.0398 -39.9161 237° Southwest  Level FlightAware Approximate
Wed 05:40:00 AM 43.9679 -40.0632 235° Southwest  Level FlightAware Approximate
Wed 05:41:00 AM 43.8941 -40.2082 235° Southwest  Level FlightAware Approximate
Wed 05:42:00 AM 43.8200 -40.3529 235° Southwest  Level FlightAware Approximate
Wed 05:42:05 AM 44.0000 -40.0000 235° Southwest 459 528 36,000  Level New York Oceanic (ODAPS)
Wed 05:43:00 AM 43.7458 -40.4971 235° Southwest  Level FlightAware Approximate
Wed 05:44:00 AM 43.6714 -40.6411 234° Southwest  Level FlightAware Approximate
Wed 05:45:00 AM 43.5969 -40.7846 234° Southwest  Level FlightAware Approximate
Wed 05:45:42 AM 43.7333 -40.5333 234° Southwest 463 533 36,000  Level New York Oceanic (ODAPS)
Wed 05:46:00 AM 43.5221 -40.9278 234° Southwest  Level FlightAware Approximate
Wed 05:47:00 AM 43.4472 -41.0707 234° Southwest  Level FlightAware Approximate
Wed 05:48:00 AM 43.5536 -40.8695 234° Southwest 459 528 36,000  Level FlightAware Transoceanic
Wed 05:49:00 AM 43.4786 -41.0132 234° Southwest 459 528 36,000  Level FlightAware Transoceanic
Wed 05:50:00 AM 43.4034 -41.1565 234° Southwest 459 528 36,000  Level FlightAware Transoceanic
Wed 05:51:00 AM 43.3563 -41.2556 234° Southwest 463 533 36,000  Level FlightAware Transoceanic
Wed 05:52:00 AM 43.2804 -41.3990 234° Southwest 463 533 36,000  Level FlightAware Transoceanic
Wed 05:53:00 AM 43.2042 -41.5420 234° Southwest 463 533 36,000  Level FlightAware Transoceanic
Wed 05:54:00 AM 43.1279 -41.6847 234° Southwest 463 533 36,000  Level FlightAware Transoceanic
Wed 05:55:00 AM 43.0514 -41.8270 234° Southwest 463 533 36,000  Level FlightAware Transoceanic
Wed 05:56:00 AM 42.9748 -41.9690 234° Southwest 463 533 36,000  Level FlightAware Transoceanic
Wed 05:57:00 AM 42.8980 -42.1106 233° Southwest 463 533 36,000  Level FlightAware Transoceanic
Wed 05:58:00 AM 42.8209 -42.2518 233° Southwest 463 533 36,000  Level FlightAware Transoceanic
Wed 05:59:00 AM 42.7438 -42.3927 233° Southwest 463 533 36,000  Level FlightAware Transoceanic
Wed 05:59:35 AM 42.7333 -42.4167 233° Southwest 467 537 36,000  Level New York Oceanic (ODAPS)
Wed 06:00:00 AM 42.6664 -42.5333 233° Southwest 463 533 36,000  Level FlightAware Transoceanic
Wed 06:01:00 AM 42.5889 -42.6735 233° Southwest 463 533 36,000  Level FlightAware Transoceanic
Wed 06:02:00 AM 42.5112 -42.8133 233° Southwest 463 533 36,000  Level FlightAware Transoceanic
Wed 06:03:00 AM 42.4333 -42.9528 233° Southwest 463 533 36,000  Level FlightAware Transoceanic
Wed 06:04:00 AM 42.3553 -43.0920 233° Southwest 463 533 36,000  Level FlightAware Transoceanic
Wed 06:05:00 AM 42.2676 -43.2520 233° Southwest 467 537 36,000  Level FlightAware Transoceanic
Wed 06:06:00 AM 42.1894 -43.3900 233° Southwest 467 537 36,000  Level FlightAware Transoceanic
Wed 06:07:00 AM 42.1110 -43.5276 232° Southwest 467 537 36,000  Level FlightAware Transoceanic
Wed 06:08:00 AM 42.0325 -43.6650 232° Southwest 467 537 36,000  Level FlightAware Transoceanic
Wed 06:09:00 AM 41.9538 -43.8020 232° Southwest 467 537 36,000  Level FlightAware Transoceanic
Wed 06:10:00 AM 41.8749 -43.9386 232° Southwest 467 537 36,000  Level FlightAware Transoceanic
Wed 06:11:00 AM 41.7959 -44.0749 232° Southwest 467 537 36,000  Level FlightAware Transoceanic
Wed 06:12:00 AM 41.7167 -44.2109 232° Southwest 467 537 36,000  Level FlightAware Transoceanic
Wed 06:13:00 AM 41.6374 -44.3465 232° Southwest 467 537 36,000  Level FlightAware Transoceanic
Wed 06:13:27 AM 41.6667 -44.3000 232° Southwest 474 545 36,000  Level New York Oceanic (ODAPS)
Wed 06:14:00 AM 41.5579 -44.4819 232° Southwest 467 537 36,000  Level FlightAware Transoceanic
Wed 06:15:00 AM 41.4782 -44.6168 232° Southwest 467 537 36,000  Level FlightAware Transoceanic
Wed 06:16:00 AM 41.3984 -44.7515 232° Southwest 467 537 36,000  Level FlightAware Transoceanic
Wed 06:17:00 AM 41.3184 -44.8858 232° Southwest 467 537 36,000  Level FlightAware Transoceanic
Wed 06:18:00 AM 41.2383 -45.0198 231° Southwest 467 537 36,000  Level FlightAware Transoceanic
Wed 06:19:00 AM 41.1836 -45.1138 231° Southwest 474 545 36,000  Level FlightAware Transoceanic
Wed 06:20:00 AM 41.1025 -45.2483 231° Southwest 474 545 36,000  Level FlightAware Transoceanic
Wed 06:21:00 AM 41.0213 -45.3825 231° Southwest 474 545 36,000  Level FlightAware Transoceanic
Wed 06:22:00 AM 40.9399 -45.5163 231° Southwest 474 545 36,000  Level FlightAware Transoceanic
Wed 06:23:00 AM 40.8584 -45.6497 231° Southwest 474 545 36,000  Level FlightAware Transoceanic
Wed 06:23:04 AM 40.8833 -45.6000 231° Southwest 470 541 36,000  Level New York Oceanic (ODAPS)
Wed 06:24:00 AM 40.7767 -45.7829 231° Southwest 474 545 36,000  Level FlightAware Transoceanic
Wed 06:24:13 AM 40.7833 -45.7500 231° Southwest 485 558 36,000  Level New York Oceanic (ODAPS)
Wed 06:25:00 AM 40.6948 -45.9157 231° Southwest 474 545 36,000  Level FlightAware Transoceanic
Wed 06:26:00 AM 40.6128 -46.0482 231° Southwest 474 545 36,000  Level FlightAware Transoceanic
Wed 06:27:00 AM 40.5307 -46.1804 231° Southwest 474 545 36,000  Level FlightAware Transoceanic
Wed 06:27:19 AM 40.5167 -46.2000 231° Southwest 482 555 36,000  Level New York Oceanic (ODAPS)
Wed 06:28:00 AM 40.4484 -46.3122 231° Southwest 474 545 36,000  Level FlightAware Transoceanic
Wed 06:29:00 AM 40.3868 -46.4033 231° Southwest 470 541 36,000  Level FlightAware Transoceanic
Wed 06:30:00 AM 40.2735 -46.5731 231° Southwest 485 558 36,000  Level FlightAware Transoceanic
Wed 06:31:00 AM 40.1879 -46.7090 230° Southwest 485 558 36,000  Level FlightAware Transoceanic
Wed 06:32:00 AM 40.1022 -46.8446 230° Southwest 485 558 36,000  Level FlightAware Transoceanic
Wed 06:33:00 AM 40.0063 -47.0089 230° Southwest 482 555 36,000  Level FlightAware Transoceanic
Wed 06:34:00 AM 39.9207 -47.1425 230° Southwest 482 555 36,000  Level FlightAware Transoceanic
Wed 06:35:00 AM 39.8349 -47.2758 230° Southwest 482 555 36,000  Level FlightAware Transoceanic
Wed 06:36:00 AM 39.7490 -47.4087 230° Southwest 482 555 36,000  Level FlightAware Transoceanic
Wed 06:37:00 AM 39.6629 -47.5414 230° Southwest 482 555 36,000  Level FlightAware Transoceanic
Wed 06:38:00 AM 39.5767 -47.6737 230° Southwest 482 555 36,000  Level FlightAware Transoceanic
Wed 06:39:00 AM 39.4903 -47.8056 230° Southwest 482 555 36,000  Level FlightAware Transoceanic
Wed 06:40:00 AM 39.4038 -47.9373 230° Southwest 482 555 36,000  Level FlightAware Transoceanic
Wed 06:41:00 AM 39.3172 -48.0686 229° Southwest 482 555 36,000  Level FlightAware Transoceanic
Wed 06:41:11 AM 39.3167 -48.0667 230° Southwest 484 557 36,000  Level New York Oceanic (ODAPS)
Wed 06:42:00 AM 39.2303 -48.1996 229° Southwest 482 555 36,000  Level FlightAware Transoceanic
Wed 06:43:00 AM 39.1434 -48.3302 229° Southwest 482 555 36,000  Level FlightAware Transoceanic
Wed 06:44:00 AM 39.0563 -48.4606 229° Southwest 482 555 36,000  Level FlightAware Transoceanic
Wed 06:45:00 AM 38.9690 -48.5906 229° Southwest 482 555 36,000  Level FlightAware Transoceanic
Wed 06:46:00 AM 38.8816 -48.7203 229° Southwest 482 555 36,000  Level FlightAware Transoceanic
Wed 06:46:39 AM 38.8500 -48.7667 229° Southwest 490 564 36,000  Level New York Oceanic (ODAPS)
Wed 06:47:00 AM 38.7938 -48.8485 229° Southwest 484 557 36,000  Level FlightAware Transoceanic
Wed 06:48:00 AM 38.7062 -48.9777 229° Southwest 484 557 36,000  Level FlightAware Transoceanic
Wed 06:49:00 AM 38.6184 -49.1066 229° Southwest 484 557 36,000  Level FlightAware Transoceanic
Wed 06:50:00 AM 38.5305 -49.2352 229° Southwest 484 557 36,000  Level FlightAware Transoceanic
Wed 06:51:00 AM 38.4424 -49.3634 229° Southwest 484 557 36,000  Level FlightAware Transoceanic
Wed 06:52:00 AM 38.3542 -49.4914 229° Southwest 484 557 36,000  Level FlightAware Transoceanic
Wed 06:53:00 AM 38.2564 -49.6330 229° Southwest 490 564 36,000  Level FlightAware Transoceanic
Wed 06:54:00 AM 38.1710 -49.7556 228° Southwest 490 564 36,000  Level FlightAware Transoceanic
Wed 06:55:00 AM 38.0856 -49.8780 228° Southwest 490 564 36,000  Level FlightAware Transoceanic
Wed 06:55:03 AM 38.0833 -49.8833 228° Southwest 448 516 36,000  Level New York Oceanic (ODAPS)
Wed 06:56:00 AM 38.0000 -50.0000 221° Southwest 490 564 36,000  Level FlightAware Transoceanic
Wed 06:56:09 AM 38.0000 -50.0000 221° Southwest 502 578 36,000  Level New York Oceanic (ODAPS)
Wed 06:57:00 AM 37.8959 -50.1132 221° Southwest 490 564 36,000  Level FlightAware Transoceanic
Wed 06:58:00 AM 37.7916 -50.2260 220° Southwest 490 564 36,000  Level FlightAware Transoceanic
Wed 06:59:00 AM 37.6873 -50.3385 220° Southwest 490 564 36,000  Level FlightAware Transoceanic
Wed 07:00:00 AM 37.5829 -50.4507 220° Southwest 490 564 36,000  Level FlightAware Transoceanic
Wed 07:01:00 AM 37.4783 -50.5626 220° Southwest 448 516 36,000  Level FlightAware Transoceanic
Wed 07:02:00 AM 37.3600 -50.6887 220° Southwest 502 578 36,000  Level FlightAware Transoceanic
Wed 07:03:00 AM 37.2529 -50.8023 220° Southwest 502 578 36,000  Level FlightAware Transoceanic
Wed 07:04:00 AM 37.1458 -50.9157 220° Southwest 502 578 36,000  Level FlightAware Transoceanic
Wed 07:05:00 AM 37.0385 -51.0287 220° Southwest 502 578 36,000  Level FlightAware Transoceanic
Wed 07:06:00 AM 36.9311 -51.1413 220° Southwest 502 578 36,000  Level FlightAware Transoceanic
Wed 07:07:00 AM 36.8236 -51.2537 220° Southwest 502 578 36,000  Level FlightAware Transoceanic
Wed 07:08:00 AM 36.7160 -51.3657 220° Southwest 502 578 36,000  Level FlightAware Transoceanic
Wed 07:08:55 AM 36.6333 -51.4500 220° Southwest 501 577 36,000  Level New York Oceanic (ODAPS)
Wed 07:09:00 AM 36.6083 -51.4775 220° Southwest 502 578 36,000  Level FlightAware Transoceanic
Wed 07:10:00 AM 36.5005 -51.5889 220° Southwest 502 578 36,000  Level FlightAware Transoceanic
Wed 07:11:00 AM 36.3926 -51.7000 220° Southwest 502 578 36,000  Level FlightAware Transoceanic
Wed 07:12:00 AM 36.2846 -51.8108 220° Southwest 502 578 36,000  Level FlightAware Transoceanic
Wed 07:13:00 AM 36.1765 -51.9213 219° Southwest 502 578 36,000  Level FlightAware Transoceanic
Wed 07:14:00 AM 36.0683 -52.0315 219° Southwest 502 578 36,000  Level FlightAware Transoceanic
Wed 07:15:00 AM 35.9806 -52.1193 219° Southwest 501 577 36,000  Level FlightAware Transoceanic
Wed 07:16:00 AM 35.8714 -52.2297 219° Southwest 501 577 36,000  Level FlightAware Transoceanic
Wed 07:17:00 AM 35.7622 -52.3399 219° Southwest 501 577 36,000  Level FlightAware Transoceanic
Wed 07:18:00 AM 35.6528 -52.4497 219° Southwest 501 577 36,000  Level FlightAware Transoceanic
Wed 07:19:00 AM 35.5434 -52.5593 219° Southwest 501 577 36,000  Level FlightAware Transoceanic
Wed 07:20:00 AM 35.4338 -52.6685 219° Southwest 501 577 36,000  Level FlightAware Transoceanic
Wed 07:21:00 AM 35.3242 -52.7775 219° Southwest 501 577 36,000  Level FlightAware Transoceanic
Wed 07:22:00 AM 35.2144 -52.8862 219° Southwest 501 577 36,000  Level FlightAware Transoceanic
Wed 07:22:47 AM 35.1333 -52.9667 219° Southwest 503 579 36,000  Level New York Oceanic (ODAPS)
Wed 07:23:00 AM 35.1046 -52.9945 219° Southwest 501 577 36,000  Level FlightAware Transoceanic
Wed 07:24:00 AM 34.9946 -53.1026 219° Southwest 501 577 36,000  Level FlightAware Transoceanic
Wed 07:25:00 AM 34.8846 -53.2104 219° Southwest 501 577 36,000  Level FlightAware Transoceanic
Wed 07:26:00 AM 34.7745 -53.3179 219° Southwest 501 577 36,000  Level FlightAware Transoceanic
Wed 07:27:00 AM 34.6642 -53.4251 219° Southwest 501 577 36,000  Level FlightAware Transoceanic
Wed 07:28:00 AM 34.5539 -53.5320 219° Southwest 501 577 36,000  Level FlightAware Transoceanic
Wed 07:29:00 AM 34.4633 -53.6199 218° Southwest 503 579 36,000  Level FlightAware Transoceanic
Wed 07:30:00 AM 34.3513 -53.7278 218° Southwest 503 579 36,000  Level FlightAware Transoceanic
Wed 07:31:00 AM 34.2392 -53.8353 218° Southwest 503 579 36,000  Level FlightAware Transoceanic
Wed 07:32:00 AM 34.1270 -53.9426 218° Southwest 503 579 36,000  Level FlightAware Transoceanic
Wed 07:33:00 AM 34.0147 -54.0496 218° Southwest 503 579 36,000  Level FlightAware Transoceanic
Wed 07:34:00 AM 33.9023 -54.1563 218° Southwest 503 579 36,000  Level FlightAware Transoceanic
Wed 07:35:00 AM 33.7898 -54.2627 218° Southwest 503 579 36,000  Level FlightAware Transoceanic
Wed 07:36:00 AM 33.6773 -54.3689 218° Southwest 503 579 36,000  Level FlightAware Transoceanic
Wed 07:36:39 AM 33.6333 -54.4167 218° Southwest 497 572 36,000  Level New York Oceanic (ODAPS)
Wed 07:37:00 AM 33.5646 -54.4748 218° Southwest 503 579 36,000  Level FlightAware Transoceanic
Wed 07:38:00 AM 33.4519 -54.5803 218° Southwest 503 579 36,000  Level FlightAware Transoceanic
Wed 07:39:00 AM 33.3390 -54.6857 218° Southwest 503 579 36,000  Level FlightAware Transoceanic
Wed 07:40:00 AM 33.2261 -54.7907 218° Southwest 503 579 36,000  Level FlightAware Transoceanic
Wed 07:41:00 AM 33.1131 -54.8955 218° Southwest 503 579 36,000  Level FlightAware Transoceanic
Wed 07:42:00 AM 33.0000 -55.0000 222° Southwest 503 579 36,000  Level FlightAware Transoceanic
Wed 07:42:28 AM 33.0000 -55.0000 222° Southwest 505 581 36,000  Level New York Oceanic (ODAPS)
Wed 07:43:00 AM 32.8957 -55.1120 222° Southwest 497 572 36,000  Level FlightAware Transoceanic
Wed 07:44:00 AM 32.7913 -55.2237 222° Southwest 497 572 36,000  Level FlightAware Transoceanic
Wed 07:45:00 AM 32.6868 -55.3351 222° Southwest 497 572 36,000  Level FlightAware Transoceanic
Wed 07:46:00 AM 32.5822 -55.4463 222° Southwest 497 572 36,000  Level FlightAware Transoceanic
Wed 07:47:00 AM 32.4775 -55.5572 222° Southwest 497 572 36,000  Level FlightAware Transoceanic
Wed 07:48:00 AM 32.3727 -55.6679 222° Southwest 505 581 36,000  Level FlightAware Transoceanic
Wed 07:49:00 AM 32.2678 -55.7783 222° Southwest 505 581 36,000  Level FlightAware Transoceanic
Wed 07:50:00 AM 32.1629 -55.8885 222° Southwest 505 581 36,000  Level FlightAware Transoceanic
Wed 07:50:31 AM 32.1667 -55.9000 221° Southwest 504 580 36,000  Level New York Oceanic (ODAPS)
Wed 07:51:00 AM 32.0578 -55.9984 222° Southwest 505 581 36,000  Level FlightAware Transoceanic
Wed 07:52:00 AM 31.9526 -56.1080 221° Southwest 505 581 36,000  Level FlightAware Transoceanic
Wed 07:53:00 AM 31.8474 -56.2174 221° Southwest 505 581 36,000  Level FlightAware Transoceanic
Wed 07:54:00 AM 31.7420 -56.3266 221° Southwest 505 581 36,000  Level FlightAware Transoceanic
Wed 07:55:00 AM 31.6366 -56.4355 221° Southwest 505 581 36,000  Level FlightAware Transoceanic
Wed 07:56:00 AM 31.5342 -56.5539 221° Southwest 504 580 36,000  Level FlightAware Transoceanic
Wed 07:57:00 AM 31.4284 -56.6620 221° Southwest 504 580 36,000  Level FlightAware Transoceanic
Wed 07:58:00 AM 31.3226 -56.7698 221° Southwest 504 580 36,000  Level FlightAware Transoceanic
Wed 07:59:00 AM 31.2167 -56.8775 221° Southwest 504 580 36,000  Level FlightAware Transoceanic
Wed 08:00:00 AM 31.1107 -56.9848 221° Southwest 504 580 36,000  Level FlightAware Transoceanic
Wed 08:01:00 AM 31.0046 -57.0920 221° Southwest 504 580 36,000  Level FlightAware Transoceanic
Wed 08:02:00 AM 30.8984 -57.1989 221° Southwest 504 580 36,000  Level FlightAware Transoceanic
Wed 08:03:00 AM 30.7921 -57.3056 221° Southwest 504 580 36,000  Level FlightAware Transoceanic
Wed 08:04:00 AM 30.6858 -57.4120 221° Southwest 504 580 36,000  Level FlightAware Transoceanic
Wed 08:04:22 AM 30.7333 -57.3667 221° Southwest 504 580 36,000  Level New York Oceanic (ODAPS)
Wed 08:05:00 AM 30.5793 -57.5182 221° Southwest 504 580 36,000  Level FlightAware Transoceanic
Wed 08:06:00 AM 30.4728 -57.6241 221° Southwest 504 580 36,000  Level FlightAware Transoceanic
Wed 08:07:00 AM 30.3662 -57.7299 221° Southwest 504 580 36,000  Level FlightAware Transoceanic
Wed 08:08:00 AM 30.2595 -57.8354 220° Southwest 504 580 36,000  Level FlightAware Transoceanic
Wed 08:09:00 AM 30.1527 -57.9407 220° Southwest 504 580 36,000  Level FlightAware Transoceanic
Wed 08:10:00 AM 30.1072 -57.9871 220° Southwest 504 580 36,000  Level FlightAware Transoceanic
Wed 08:11:00 AM 30.0026 -58.0897 220° Southwest 504 580 36,000  Level FlightAware Transoceanic
Wed 08:12:00 AM 29.8979 -58.1921 220° Southwest 504 580 36,000  Level FlightAware Transoceanic
Wed 08:13:00 AM 29.7931 -58.2943 220° Southwest 504 580 36,000  Level FlightAware Transoceanic
Wed 08:14:00 AM 29.6882 -58.3963 220° Southwest 504 580 36,000  Level FlightAware Transoceanic
Wed 08:15:00 AM 29.5833 -58.4981 220° Southwest 504 580 36,000  Level FlightAware Transoceanic
Wed 08:16:00 AM 29.4782 -58.5997 220° Southwest 504 580 36,000  Level FlightAware Transoceanic
Wed 08:17:00 AM 29.3731 -58.7010 220° Southwest 504 580 36,000  Level FlightAware Transoceanic
Wed 08:18:00 AM 29.2680 -58.8022 220° Southwest 504 580 36,000  Level FlightAware Transoceanic
Wed 08:18:15 AM 29.2500 -58.8167 220° Southwest 507 583 36,000  Level New York Oceanic (ODAPS)
Wed 08:19:00 AM 29.1627 -58.9031 220° Southwest 504 580 36,000  Level FlightAware Transoceanic
Wed 08:20:00 AM 29.0574 -59.0038 220° Southwest 504 580 36,000  Level FlightAware Transoceanic
Wed 08:21:00 AM 28.9520 -59.1044 220° Southwest 504 580 36,000  Level FlightAware Transoceanic
Wed 08:22:00 AM 28.8465 -59.2047 220° Southwest 504 580 36,000  Level FlightAware Transoceanic
Wed 08:23:00 AM 28.7409 -59.3048 220° Southwest 504 580 36,000  Level FlightAware Transoceanic
Wed 08:24:00 AM 28.6263 -59.4119 220° Southwest 507 583 36,000  Level FlightAware Transoceanic
Wed 08:25:00 AM 28.5221 -59.5104 220° Southwest 507 583 36,000  Level FlightAware Transoceanic
Wed 08:26:00 AM 28.4178 -59.6087 220° Southwest 507 583 36,000  Level FlightAware Transoceanic
Wed 08:27:00 AM 28.3135 -59.7068 220° Southwest 507 583 36,000  Level FlightAware Transoceanic
Wed 08:28:00 AM 28.2090 -59.8047 220° Southwest 507 583 36,000  Level FlightAware Transoceanic
Wed 08:29:00 AM 28.1046 -59.9025 219° Southwest 507 583 36,000  Level FlightAware Transoceanic
Wed 08:30:00 AM 28.0000 -60.0000 221° Southwest 507 583 36,000  Level FlightAware Transoceanic
Wed 08:30:00 AM 28.0000 -60.0000 221° Southwest 480 552 36,000  Level New York Oceanic (ODAPS)
Wed 08:31:00 AM 27.8967 -60.1029 221° Southwest 507 583 36,000  Level FlightAware Transoceanic
Wed 08:32:00 AM 27.7933 -60.2057 221° Southwest 507 583 36,000  Level FlightAware Transoceanic
Wed 08:32:07 AM 27.7333 -60.2667 221° Southwest 482 555 36,000  Level New York Oceanic (ODAPS)
Wed 08:33:00 AM 27.6898 -60.3082 221° Southwest 507 583 36,000  Level FlightAware Transoceanic
Wed 08:33:58 AM 27.5167 -60.4667 219° Southwest 519 597 36,000  Level New York Oceanic (ODAPS)
Wed 08:34:00 AM 27.5863 -60.4106 221° Southwest 507 583 36,000  Level FlightAware Transoceanic
Wed 08:35:00 AM 27.4827 -60.5127 221° Southwest 507 583 36,000  Level FlightAware Transoceanic
Wed 08:36:00 AM 27.3888 -60.6050 221° Southwest 480 552 36,000  Level FlightAware Transoceanic
Wed 08:37:00 AM 27.2867 -60.7052 221° Southwest 480 552 36,000  Level FlightAware Transoceanic
Wed 08:38:00 AM 27.1273 -60.8625 221° Southwest 482 555 36,000  Level FlightAware Transoceanic
Wed 08:39:00 AM 27.0260 -60.9612 221° Southwest 482 555 36,000  Level FlightAware Transoceanic
Wed 08:40:00 AM 26.8478 -61.0732 219° Southwest 519 597 36,000  Level FlightAware Transoceanic
Wed 08:41:00 AM 26.7361 -61.1736 219° Southwest 519 597 36,000  Level FlightAware Transoceanic
Wed 08:42:00 AM 26.6243 -61.2738 219° Southwest 519 597 36,000  Level FlightAware Transoceanic
Wed 08:43:00 AM 26.5125 -61.3738 219° Southwest 519 597 36,000  Level FlightAware Transoceanic
Wed 08:44:00 AM 26.4005 -61.4736 219° Southwest 519 597 36,000  Level FlightAware Transoceanic
Wed 08:45:00 AM 26.2885 -61.5732 219° Southwest 519 597 36,000 504 Level FlightAware Transoceanic
Wed 08:45:59 AM 26.1500 -61.7000 218° Southwest 507 583 37,000  Climbing New York Oceanic (ODAPS)
Wed 08:46:00 AM 26.1765 -61.6726 218° Southwest 519 597 36,000 -984 Descending FlightAware Transoceanic
Wed 08:47:00 AM 26.0643 -61.7718 218° Southwest 519 597 36,000  Level FlightAware Transoceanic
Wed 08:48:00 AM 25.9521 -61.8709 218° Southwest 519 597 36,000  Level FlightAware Transoceanic
Wed 08:49:00 AM 25.8398 -61.9697 218° Southwest 519 597 36,000  Level FlightAware Transoceanic
Wed 08:50:00 AM 25.7275 -62.0684 218° Southwest 519 597 36,000  Level FlightAware Transoceanic
Wed 08:51:00 AM 25.6151 -62.1669 218° Southwest 519 597 36,000 500 Level FlightAware Transoceanic
Wed 08:52:00 AM 25.4805 -62.2877 218° Southwest 507 583 37,000 500 Climbing FlightAware Transoceanic
Wed 08:53:00 AM 25.3687 -62.3850 218° Southwest 507 583 37,000  Level FlightAware Transoceanic
Wed 08:54:00 AM 25.2568 -62.4822 218° Southwest 507 583 37,000  Level FlightAware Transoceanic
Wed 08:55:00 AM 25.1448 -62.5791 218° Southwest 507 583 37,000  Level FlightAware Transoceanic
Wed 08:56:00 AM 25.0328 -62.6759 218° Southwest 507 583 37,000  Level FlightAware Transoceanic
Wed 08:57:00 AM 24.9208 -62.7725 218° Southwest 507 583 37,000  Level FlightAware Transoceanic
Wed 08:58:00 AM 24.8086 -62.8689 218° Southwest 507 583 37,000  Level FlightAware Transoceanic
Wed 08:59:00 AM 24.6965 -62.9652 218° Southwest 507 583 37,000  Level FlightAware Transoceanic
Wed 08:59:51 AM 24.5833 -63.0667 218° Southwest 508 585 37,000  Level New York Oceanic (ODAPS)
Wed 09:00:00 AM 24.5842 -63.0613 218° Southwest 507 583 37,000  Level FlightAware Transoceanic
Wed 09:01:00 AM 24.4719 -63.1572 218° Southwest 507 583 37,000  Level FlightAware Transoceanic
Wed 09:02:00 AM 24.3595 -63.2529 218° Southwest 507 583 37,000  Level FlightAware Transoceanic
Wed 09:03:00 AM 24.2471 -63.3485 218° Southwest 507 583 37,000  Level FlightAware Transoceanic
Wed 09:04:00 AM 24.1346 -63.4439 218° Southwest 507 583 37,000  Level FlightAware Transoceanic
Wed 09:05:00 AM 24.0220 -63.5391 218° Southwest 507 583 37,000  Level FlightAware Transoceanic
Wed 09:06:00 AM 23.9088 -63.6381 218° Southwest 508 585 37,000  Level FlightAware Transoceanic
Wed 09:07:00 AM 23.7962 -63.7327 218° Southwest 508 585 37,000  Level FlightAware Transoceanic
Wed 09:08:00 AM 23.6835 -63.8272 217° Southwest 508 585 37,000  Level FlightAware Transoceanic
Wed 09:09:00 AM 23.5707 -63.9215 217° Southwest 508 585 37,000  Level FlightAware Transoceanic
Wed 09:10:00 AM 23.4579 -64.0157 217° Southwest 508 585 37,000  Level FlightAware Transoceanic
Wed 09:11:00 AM 23.3451 -64.1097 217° Southwest 508 585 37,000  Level FlightAware Transoceanic
Wed 09:12:00 AM 23.2321 -64.2035 217° Southwest 508 585 37,000  Level FlightAware Transoceanic
Wed 09:13:00 AM 23.1192 -64.2972 217° Southwest 508 585 37,000  Level FlightAware Transoceanic
Wed 09:13:43 AM 23.0500 -64.3500 217° Southwest 488 562 37,000  Level New York Oceanic (ODAPS)
Wed 09:14:00 AM 23.0061 -64.3907 217° Southwest 508 585 37,000  Level FlightAware Transoceanic
Wed 09:15:00 AM 22.8931 -64.4841 217° Southwest 508 585 37,000  Level FlightAware Transoceanic
Wed 09:16:00 AM 22.7799 -64.5773 217° Southwest 508 585 37,000  Level FlightAware Transoceanic
Wed 09:17:00 AM 22.6667 -64.6703 217° Southwest 508 585 37,000  Level FlightAware Transoceanic
Wed 09:18:00 AM 22.5535 -64.7632 217° Southwest 508 585 37,000  Level FlightAware Transoceanic
Wed 09:19:00 AM 22.4567 -64.8409 217° Southwest 488 562 37,000  Level FlightAware Transoceanic
Wed 09:20:00 AM 22.3379 -64.9385 217° Southwest 488 562 37,000  Level FlightAware Transoceanic
Wed 09:20:51 AM 22.2833 -64.9500 230° Southwest 470 541 37,000  Level San Juan Center
Wed 09:21:00 AM 22.2190 -65.0360 217° Southwest 488 562 37,000  Level FlightAware Transoceanic
Wed 09:21:51 AM 22.1500 -65.0667 219° Southwest 480 552 37,000  Level San Juan Center
Wed 09:22:00 AM 22.1000 -65.1333 230° Southwest 488 562 37,000  Level FlightAware Transoceanic
Wed 09:22:51 AM 22.0667 -65.1667 228° Southwest 450 518 37,000  Level San Juan Center
Wed 09:23:00 AM 22.0201 -65.2371 230° Southwest 488 562 37,000  Level FlightAware Transoceanic
Wed 09:23:51 AM 21.9833 -65.3000 236° Southwest 480 552 37,000  Level San Juan Center
Wed 09:24:00 AM 21.9402 -65.3408 230° Southwest 488 562 37,000  Level FlightAware Transoceanic
Wed 09:24:52 AM 21.9000 -65.4000 228° Southwest 510 587 37,000  Level San Juan Center
Wed 09:25:00 AM 21.8602 -65.4444 230° Southwest 488 562 37,000  Level FlightAware Transoceanic
Wed 09:25:52 AM 21.8167 -65.5167 232° Southwest 500 575 37,000  Level San Juan Center
Wed 09:26:00 AM 21.7802 -65.5479 230° Southwest 488 562 37,000 -900 Level FlightAware Transoceanic
Wed 09:26:52 AM 21.7333 -65.6333 232° Southwest 470 541 36,100 -1,018 Descending San Juan Center
Wed 09:27:52 AM 21.6500 -65.7500 232° Southwest 510 587 35,100 -1,050 Descending San Juan Center
Wed 09:28:52 AM 21.5833 -65.8667 238° Southwest 500 575 34,000 -550 Descending San Juan Center
Wed 09:29:52 AM 21.5000 -65.9833 232° Southwest 480 552 34,000  Level San Juan Center
Wed 09:30:53 AM 21.4167 -66.1000 233° Southwest 480 552 34,000  Level San Juan Center
Wed 09:31:53 AM 21.3333 -66.2000 228° Southwest 490 564 34,000  Level San Juan Center
Wed 09:33:53 AM 21.1500 -66.4167 228° Southwest 490 564 34,000  Level San Juan Center
Wed 09:34:53 AM 21.0667 -66.5167 228° Southwest 470 541 34,000  Level San Juan Center
Wed 09:35:53 AM 20.9833 -66.6167 228° Southwest 480 552 34,000  Level San Juan Center
Wed 09:36:53 AM 20.8833 -66.7333 227° Southwest 490 564 34,000  Level San Juan Center
Wed 09:37:53 AM 20.8000 -66.8500 233° Southwest 480 552 34,000  Level San Juan Center
Wed 09:38:53 AM 20.7167 -66.9500 228° Southwest 480 552 34,000  Level San Juan Center
Wed 09:39:54 AM 20.6333 -67.0500 228° Southwest 480 552 34,000  Level San Juan Center
Wed 09:40:54 AM 20.5333 -67.1667 228° Southwest 480 552 34,000  Level San Juan Center
Wed 09:41:54 AM 20.4500 -67.2667 228° Southwest 480 552 34,000 -100 Level San Juan Center
Wed 09:42:54 AM 20.3667 -67.3833 233° Southwest 490 564 33,800 -550 Descending San Juan Center
Wed 09:43:54 AM 20.2833 -67.4833 228° Southwest 460 529 32,900 -950 Descending San Juan Center
Wed 09:44:54 AM 20.2000 -67.5667 223° Southwest 450 518 31,900 -1,050 Descending San Juan Center
Wed 09:45:54 AM 20.1167 -67.6667 228° Southwest 450 518 30,800 -1,190 Descending San Juan Center
Wed 09:46:55 AM 20.0333 -67.7667 228° Southwest 450 518 29,500 -1,438 Descending San Juan Center
Wed 09:47:55 AM 19.9500 -67.8667 228° Southwest 450 518 27,900 -1,550 Descending San Juan Center
Wed 09:48:55 AM 19.8667 -67.9667 228° Southwest 440 506 26,400 -1,700 Descending San Juan Center
Wed 09:49:55 AM 19.7833 -68.0667 228° Southwest 440 506 24,500 -1,800 Descending San Juan Center
Wed 09:50:55 AM 19.7000 -68.1500 223° Southwest 420 483 22,800 -1,650 Descending San Juan Center
Wed 09:51:55 AM 19.6333 -68.2500 235° Southwest 420 483 21,200 -1,650 Descending San Juan Center
Wed 09:52:55 AM 19.5500 -68.3333 223° Southwest 410 472 19,500 -1,550 Descending San Juan Center
Wed 09:53:55 AM 19.4833 -68.4167 230° Southwest 410 472 18,100 -1,587 Descending San Juan Center
Wed 09:54:56 AM 19.4000 -68.5167 229° Southwest 410 472 16,300 -1,770 Descending San Juan Center
Wed 09:56:00 AM 19.3078 -68.5804 163° South  Level FlightAware Approximate

Login

Don't have an account? Register now (free) for customized features, flight alerts, and more!